• Join FlightAware (Why Join?)
  • Login
  • US Flag 
05:32AM EDT


 

Airport Tracker/Info


-or-


 

Live Flight TrackerFlight Track Log ✈ N678H ✈ 14-May-2013 ✈ KJBR - KASG

Flight Track Log - Related Links

Times and Time Zones

All times are in EDT time to prevent confusion due to time zone crossing. See the N678H flight status page for this flight to view local times or setup timezone preferences in your user account.

Time Position Orientation Groundspeed Altitude Reporting Facility
EDT Latitude Longitude Course Direction KTS MPH feet Rate Location/Type
04:07PM 35.7722 -90.7742 277° West 185 213 3,800  Level Memphis Center
04:08PM 35.7511 -90.8072 232° Southwest 157 181 4,400 600 Climbing Memphis Center
04:09PM 35.7322 -90.8328 228° Southwest 140 161 5,100 720 Climbing Memphis Center
04:10PM 35.7383 -90.8889 278° West 132 152 5,900 660 Climbing Memphis Center
04:11PM 35.8514 -90.8636 277° West  Level FlightAware Approximate
04:11PM 35.7486 -90.9350 285° West 132 152 6,500  Level Memphis Center
04:12PM 35.8560 -90.9101 277° West  Level FlightAware Approximate
04:12PM 35.7589 -90.9761 287° West 132 152 7,400  Level Memphis Center
04:13PM 35.7608 -91.0169 273° West 127 146 8,100 720 Climbing Memphis Center
04:14PM 35.7606 -91.0556 270° West 122 140 8,900 720 Climbing Memphis Center
04:15PM 35.7686 -91.1017 282° West 127 146 9,600 660 Climbing Memphis Center
04:16PM 35.7683 -91.1475 270° West 127 146 10,300 720 Climbing Memphis Center
04:17PM 35.7658 -91.1911 266° West 127 146 11,100 720 Climbing Memphis Center
04:18PM 35.7739 -91.2372 282° West 133 153 11,800 480 Climbing Memphis Center
04:19PM 35.7736 -91.2806 270° West 133 153 12,100 60 Climbing Memphis Center
04:20PM 35.7858 -91.3344 286° West 145 167 12,000 -60 Descending Memphis Center
04:21PM 35.8019 -91.3911 289° West 158 182 12,000  Level Memphis Center
04:22PM 35.8139 -91.4475 285° West 164 189 12,000  Level Memphis Center
04:23PM 35.8261 -91.4989 286° West 164 189 12,000  Level Memphis Center
04:24PM 35.8339 -91.5581 279° West 164 189 12,000  Level Memphis Center
04:25PM 35.8394 -91.6117 277° West 164 189 12,000  Level Memphis Center
04:26PM 35.8431 -91.6681 275° West 164 189 12,000  Level Memphis Center
04:27PM 35.8508 -91.7219 280° West 164 189 12,000  Level Memphis Center
04:28PM 35.8608 -91.7786 282° West 164 189 12,000  Level Memphis Center
04:29PM 35.8706 -91.8350 282° West 164 189 12,000  Level Memphis Center
04:30PM 35.8719 -91.8889 272° West 164 189 12,000  Level Memphis Center
04:31PM 35.8817 -91.9428 283° West 164 189 12,000  Level Memphis Center
04:32PM 35.8894 -91.9969 280° West 164 189 12,000  Level Memphis Center
04:33PM 35.8969 -92.0483 280° West 164 189 12,000  Level Memphis Center
04:34PM 35.9025 -92.1022 277° West 158 182 12,000  Level Memphis Center
04:35PM 35.9100 -92.1561 280° West 158 182 12,000  Level Memphis Center
04:36PM 35.9156 -92.2100 277° West 158 182 12,000  Level Memphis Center
04:37PM 35.9189 -92.2614 275° West 158 182 12,000  Level Memphis Center
04:38PM 35.9222 -92.3153 274° West 158 182 12,000  Level Memphis Center
04:39PM 35.9256 -92.3692 274° West 158 182 12,000  Level Memphis Center
04:40PM 35.9289 -92.4206 275° West 158 182 12,000  Level Memphis Center
04:41PM 35.9344 -92.4719 278° West 158 182 12,000  Level Memphis Center
04:42PM 35.9417 -92.5261 279° West 158 182 12,000  Level Memphis Center
04:43PM 35.9469 -92.5800 277° West 158 182 12,000  Level Memphis Center
04:44PM 35.9544 -92.6289 281° West 164 189 12,000  Level Memphis Center
04:45PM 35.9619 -92.6831 280° West 159 183 12,000  Level Memphis Center
04:46PM 35.9692 -92.7397 279° West 159 183 12,000  Level Memphis Center
04:47PM 35.9764 -92.7911 280° West 159 183 12,000  Level Memphis Center
04:48PM 35.9836 -92.8478 279° West 164 189 12,000  Level Memphis Center
04:49PM 35.9908 -92.9019 279° West 164 189 12,000  Level Memphis Center
04:50PM 35.9981 -92.9586 279° West 164 189 12,000 -420 Level Memphis Center
04:51PM 36.0072 -93.0231 280° West 169 194 11,200 -660 Descending Memphis Center
04:52PM 36.0142 -93.0847 278° West 179 206 10,700 -420 Descending Memphis Center
04:53PM 36.0233 -93.1442 281° West 184 212 10,400 -420 Descending Memphis Center
04:54PM 36.0322 -93.2061 280° West 184 212 9,900 -540 Descending Memphis Center
04:55PM 36.0414 -93.2653 281° West 179 206 9,400 -480 Descending Memphis Center
04:56PM 36.0503 -93.3247 280° West 179 206 9,000 -480 Descending Memphis Center
04:57PM 36.0594 -93.3842 281° West 179 206 8,500 -540 Descending Memphis Center
04:58PM 36.0664 -93.4433 278° West 179 206 8,000 -540 Descending Memphis Center
04:59PM 36.0733 -93.5003 279° West 179 206 7,500 -540 Descending Memphis Center
05:00PM 36.0800 -93.5569 278° West 179 206 7,000 -480 Descending Memphis Center
05:01PM 36.0997 -93.6092 295° West 174 200 6,600 -540 Descending Memphis Center
05:02PM 36.1147 -93.6636 289° West 174 200 6,000 -600 Descending Memphis Center
05:03PM 36.1322 -93.7183 292° West 169 194 5,500 -540 Descending Memphis Center
05:04PM 36.1431 -93.7728 284° West 169 194 5,000 -600 Descending Memphis Center
05:05PM 36.1561 -93.8350 285° West 164 189 4,400 -540 Descending Memphis Center
05:06PM 36.1650 -93.8867 282° West 164 189 4,000 -360 Descending Memphis Center
05:07PM 36.1719 -93.9358 280° West 164 189 3,700 -300 Descending Memphis Center
05:09PM 36.1697 -94.0072 268° West  Level FlightAware Approximate
05:16PM 36.1667 -94.1167 270° West  Level FlightAware Approximate
05:17PM 36.1764 -94.1192 270° West  Level Estimated
05:18PM 36.1764 -94.1192 270° West  Level Estimated
05:19PM 36.1764 -94.1192 270° West  Level Estimated
05:20PM 36.1764 -94.1192 270° West  Level Estimated
05:21PM 36.1764 -94.1192 270° West  Level Estimated